Time;durP1;ratioP1;P1;durP2;ratioP2;P2;SDS_P1;SDS_P2;PMS_P1;PMS_P2;Temp;Humidity;BMP_temperature;BMP_pressure;BME280_temperature;BME280_humidity;BME280_pressure;Samples;Min_cycle;Max_cycle;Signal;HPM_P1;HPM_P2
2022/09/08 00:01:18;;;;;;;7.77;5.70;;;;;;;17.54;100.00;96500.81;5001988;28;21577;-57
2022/09/08 00:03:46;;;;;;;6.17;5.47;;;;;;;17.50;100.00;96495.94;5005996;28;20219;-61
2022/09/08 00:06:17;;;;;;;6.07;5.63;;;;;;;17.57;100.00;96501.13;4994354;28;20715;-61
2022/09/08 00:08:46;;;;;;;7.20;5.70;;;;;;;17.60;100.00;96491.78;4992707;28;20303;-60
2022/09/08 00:11:17;;;;;;;6.80;5.70;;;;;;;17.55;100.00;96497.88;5005124;28;20311;-59
2022/09/08 00:13:46;;;;;;;6.90;6.27;;;;;;;17.56;100.00;96507.53;4983455;28;20574;-61
2022/09/08 00:16:18;;;;;;;8.53;6.37;;;;;;;17.58;100.00;96504.63;4988525;28;20585;-59
2022/09/08 00:18:50;;;;;;;6.13;5.50;;;;;;;17.58;100.00;96510.78;5015155;28;20200;-59
2022/09/08 00:21:54;;;;;;;5.67;5.07;;;;;;;17.60;100.00;96516.69;4972477;28;20244;-59
2022/09/08 00:24:22;;;;;;;6.40;5.50;;;;;;;17.64;100.00;96512.50;4981126;28;20299;-62
2022/09/08 00:26:50;;;;;;;6.40;5.80;;;;;;;17.63;100.00;96521.59;5009265;28;20203;-61
2022/09/08 00:29:18;;;;;;;5.93;5.37;;;;;;;17.62;100.00;96524.50;5010680;28;20287;-62
2022/09/08 00:31:47;;;;;;;5.87;4.77;;;;;;;17.64;100.00;96535.78;4961834;28;20314;-61
2022/09/08 00:34:15;;;;;;;6.93;5.17;;;;;;;17.69;100.00;96541.19;5012804;28;20235;-59
2022/09/08 00:36:43;;;;;;;6.07;5.30;;;;;;;18.00;100.00;96562.28;4989499;28;20336;-60
2022/09/08 00:39:12;;;;;;;6.70;6.10;;;;;;;17.86;100.00;96573.34;4987084;28;20332;-59
2022/09/08 00:41:41;;;;;;;8.20;5.60;;;;;;;17.87;100.00;96571.47;5010072;28;20232;-59
2022/09/08 00:44:36;;;;;;;7.80;5.60;;;;;;;17.90;100.00;96571.78;5009478;28;20597;-59
2022/09/08 00:47:06;;;;;;;7.27;4.93;;;;;;;17.99;100.00;96582.06;4977559;28;20215;-60
2022/09/08 00:49:34;;;;;;;6.67;5.10;;;;;;;18.04;100.00;96590.25;5013458;28;20292;-60
2022/09/08 00:52:03;;;;;;;7.80;4.70;;;;;;;18.05;100.00;96594.53;4984452;28;20418;-57
2022/09/08 00:54:33;;;;;;;4.67;3.73;;;;;;;17.96;100.00;96578.03;5006081;28;20317;-60
2022/09/08 00:57:01;;;;;;;4.30;3.87;;;;;;;17.84;100.00;96566.63;4981126;28;20828;-57
2022/09/08 00:59:30;;;;;;;4.13;2.90;;;;;;;17.81;100.00;96573.25;5011180;28;20215;-58
2022/09/08 01:01:59;;;;;;;2.70;2.50;;;;;;;17.95;100.00;96576.41;4959856;28;20234;-62
2022/09/08 01:04:27;;;;;;;3.43;3.13;;;;;;;17.85;100.00;96568.22;5011501;28;20231;-61
2022/09/08 01:12:53;;;;;;;3.00;2.70;;;;;;;17.65;100.00;96561.50;4946443;28;20320;-60
2022/09/08 01:15:23;;;;;;;2.63;2.43;;;;;;;17.64;100.00;96563.38;4971784;28;20464;-57
2022/09/08 01:17:54;;;;;;;2.43;2.23;;;;;;;17.71;100.00;96557.03;4920626;28;20226;-60
2022/09/08 01:20:25;;;;;;;3.47;2.10;;;;;;;17.56;100.00;96561.09;4969160;28;20233;-58
2022/09/08 01:23:03;;;;;;;2.53;2.33;;;;;;;17.50;100.00;96554.03;4946790;28;20234;-60
2022/09/08 01:25:53;;;;;;;3.33;1.97;;;;;;;17.59;100.00;96554.44;4972660;28;20213;-61
2022/09/08 01:28:27;;;;;;;2.53;2.07;;;;;;;17.41;100.00;96555.50;4969415;28;20202;-57
2022/09/08 01:30:55;;;;;;;2.90;2.10;;;;;;;17.25;100.00;96549.09;4963166;28;20899;-58
2022/09/08 01:33:23;;;;;;;3.57;2.40;;;;;;;17.27;100.00;96538.94;4928471;28;20221;-61
2022/09/08 01:35:51;;;;;;;3.43;2.73;;;;;;;17.17;100.00;96534.22;4915681;28;20233;-61
2022/09/08 01:38:20;;;;;;;2.57;2.37;;;;;;;17.13;100.00;96517.03;4946424;28;20310;-60
2022/09/08 01:40:48;;;;;;;2.60;2.20;;;;;;;17.07;100.00;96508.94;4913660;28;20229;-60
2022/09/08 01:43:16;;;;;;;3.33;2.43;;;;;;;17.03;100.00;96497.09;4952539;28;20216;-62
2022/09/08 01:45:45;;;;;;;2.10;2.00;;;;;;;16.98;100.00;96480.13;4983107;28;20326;-61
2022/09/08 01:48:14;;;;;;;5.60;2.20;;;;;;;17.07;100.00;96470.66;5006294;28;20296;-60
2022/09/08 01:50:42;;;;;;;2.40;2.30;;;;;;;16.98;100.00;96456.03;4965816;28;20292;-58
2022/09/08 01:53:10;;;;;;;1.77;1.70;;;;;;;16.93;100.00;96451.41;5007013;28;20209;-61
2022/09/08 01:55:38;;;;;;;2.37;2.17;;;;;;;16.98;100.00;96443.50;4998767;28;20208;-60
2022/09/08 01:58:06;;;;;;;2.77;2.13;;;;;;;16.90;100.00;96428.59;4989372;28;20319;-61
2022/09/08 02:00:34;;;;;;;2.07;1.97;;;;;;;16.95;100.00;96429.75;5006339;28;20218;-62
2022/09/08 02:03:04;;;;;;;2.30;2.10;;;;;;;16.92;100.00;96423.03;4988444;28;20572;-56
2022/09/08 02:05:32;;;;;;;2.33;2.23;;;;;;;16.82;100.00;96428.19;4986652;28;20206;-59
2022/09/08 02:08:01;;;;;;;2.40;2.20;;;;;;;16.81;100.00;96430.06;4995437;28;20204;-60
2022/09/08 02:10:29;;;;;;;2.63;2.50;;;;;;;16.72;100.00;96426.19;5009954;28;20209;-60
2022/09/08 02:12:57;;;;;;;3.40;2.53;;;;;;;16.76;100.00;96428.13;4981174;28;21451;-60
2022/09/08 02:15:25;;;;;;;2.03;1.93;;;;;;;16.74;100.00;96432.91;5005834;28;20197;-61
2022/09/08 02:17:53;;;;;;;3.33;2.33;;;;;;;16.75;100.00;96441.75;4985166;28;20236;-58
2022/09/08 02:20:23;;;;;;;2.20;2.00;;;;;;;16.81;100.00;96439.94;5010631;28;20223;-60
2022/09/08 02:22:53;;;;;;;2.77;2.50;;;;;;;16.77;100.00;96451.13;4966390;28;20220;-57
2022/09/08 02:25:21;;;;;;;2.10;1.97;;;;;;;16.81;100.00;96447.97;5013442;28;20200;-59
2022/09/08 02:27:52;;;;;;;2.73;2.53;;;;;;;16.85;100.00;96441.91;5008253;28;20197;-57
2022/09/08 02:30:20;;;;;;;2.00;1.90;;;;;;;16.86;100.00;96442.75;4986691;28;20324;-56
2022/09/08 02:32:49;;;;;;;2.53;2.33;;;;;;;16.83;100.00;96443.19;4981847;28;20779;-57
2022/09/08 02:35:17;;;;;;;2.47;2.13;;;;;;;16.92;100.00;96431.06;5005585;28;20208;-57
2022/09/08 02:37:47;;;;;;;3.20;2.20;;;;;;;16.90;100.00;96436.63;4966564;28;20230;-57
2022/09/08 02:40:15;;;;;;;4.63;2.37;;;;;;;16.88;100.00;96428.03;5005025;28;21662;-59
2022/09/08 02:42:44;;;;;;;2.70;2.50;;;;;;;16.91;100.00;96432.13;5005101;28;21053;-58
2022/09/08 02:45:12;;;;;;;2.67;2.47;;;;;;;16.94;100.00;96436.97;4988663;28;20226;-58
2022/09/08 02:47:40;;;;;;;4.00;2.23;;;;;;;16.88;100.00;96443.31;5008526;28;20205;-59
2022/09/08 02:50:08;;;;;;;2.50;2.30;;;;;;;16.92;100.00;96442.56;4990000;28;20212;-61
2022/09/08 02:52:36;;;;;;;2.20;2.10;;;;;;;16.92;100.00;96457.81;4961226;28;20306;-59
2022/09/08 02:55:07;;;;;;;2.77;2.30;;;;;;;17.02;100.00;96457.19;5004335;28;20202;-58
2022/09/08 02:57:35;;;;;;;2.47;2.27;;;;;;;16.88;100.00;96456.69;5005670;28;20315;-59
2022/09/08 03:00:04;;;;;;;2.60;2.40;;;;;;;16.88;100.00;96445.97;5004202;28;20835;-57
2022/09/08 03:02:33;;;;;;;2.47;2.27;;;;;;;16.91;100.00;96432.13;4994203;28;20229;-59
2022/09/08 03:05:06;;;;;;;2.57;2.37;;;;;;;16.80;100.00;96433.81;4987370;28;21021;-58
2022/09/08 03:07:34;;;;;;;2.50;2.30;;;;;;;16.67;100.00;96437.59;4963951;28;20688;-59
2022/09/08 03:10:02;;;;;;;3.93;2.90;;;;;;;16.49;100.00;96433.28;5002271;28;20235;-59
2022/09/08 03:12:32;;;;;;;2.70;2.60;;;;;;;16.47;100.00;96441.53;5010313;28;20231;-59
2022/09/08 03:15:00;;;;;;;3.10;2.70;;;;;;;16.43;100.00;96453.75;5006128;28;23220;-59
2022/09/08 03:17:28;;;;;;;2.67;2.47;;;;;;;16.47;100.00;96470.94;4988974;28;20232;-58
2022/09/08 03:19:56;;;;;;;4.63;3.03;;;;;;;16.37;100.00;96475.31;5004465;28;20288;-56
2022/09/08 03:22:24;;;;;;;3.40;3.10;;;;;;;16.15;100.00;96495.47;4936065;28;20763;-61
2022/09/08 03:24:53;;;;;;;6.50;3.73;;;;;;;16.11;100.00;96504.19;4971273;28;20204;-60
2022/09/08 03:27:21;;;;;;;3.53;3.23;;;;;;;15.91;100.00;96502.72;5003670;28;20268;-55
2022/09/08 03:29:50;;;;;;;5.63;3.30;;;;;;;15.72;100.00;96497.47;5004550;28;20304;-59
2022/09/08 03:32:18;;;;;;;8.20;3.60;;;;;;;15.53;100.00;96496.78;4983405;28;20259;-58
2022/09/08 03:34:47;;;;;;;4.30;3.73;;;;;;;15.39;100.00;96492.75;5002956;28;20215;-54
2022/09/08 03:37:15;;;;;;;7.67;4.60;;;;;;;15.30;100.00;96481.59;4940077;28;21565;-57
2022/09/08 03:39:45;;;;;;;4.20;3.23;;;;;;;15.19;100.00;96480.53;5002691;28;20201;-61
2022/09/08 03:42:13;;;;;;;5.23;3.37;;;;;;;15.05;100.00;96448.75;5006724;28;20282;-63
2022/09/08 03:44:42;;;;;;;6.60;4.07;;;;;;;14.94;100.00;96425.53;4935455;28;20888;-58
2022/09/08 03:47:12;;;;;;;5.73;3.50;;;;;;;14.92;100.00;96446.28;5001428;28;20208;-60
2022/09/08 03:49:40;;;;;;;3.97;2.97;;;;;;;14.97;100.00;96467.78;4979658;28;20986;-57
2022/09/08 03:52:08;;;;;;;3.37;3.17;;;;;;;14.94;100.00;96465.53;5002629;28;20224;-61
2022/09/08 03:54:48;;;;;;;3.30;2.90;;;;;;;14.90;100.00;96449.19;5003402;28;20192;-58
2022/09/08 03:57:18;;;;;;;3.67;3.07;;;;;;;14.96;100.00;96449.31;5001911;28;20204;-57
2022/09/08 03:59:46;;;;;;;2.80;2.60;;;;;;;14.99;100.00;96432.84;4962363;28;20242;-56
2022/09/08 04:02:17;;;;;;;5.97;3.40;;;;;;;14.92;100.00;96416.94;5002577;28;21471;-60
2022/09/08 04:04:48;;;;;;;4.23;2.90;;;;;;;14.99;100.00;96431.00;5002933;28;20939;-58
2022/09/08 04:07:17;;;;;;;5.30;3.07;;;;;;;15.08;100.00;96430.66;4980023;28;20317;-58
2022/09/08 04:09:45;;;;;;;3.23;2.93;;;;;;;14.97;100.00;96421.59;5005443;28;20456;-55
2022/09/08 04:12:14;;;;;;;3.67;2.50;;;;;;;14.99;100.00;96424.84;5003594;28;20291;-59
2022/09/08 04:14:43;;;;;;;4.77;2.87;;;;;;;14.93;100.00;96420.44;4962296;28;21729;-59
2022/09/08 04:17:11;;;;;;;3.40;2.70;;;;;;;14.93;100.00;96423.91;5007616;28;20269;-59
2022/09/08 04:19:41;;;;;;;4.07;2.63;;;;;;;14.83;100.00;96413.00;5008092;28;20221;-57
2022/09/08 04:22:15;;;;;;;3.80;2.87;;;;;;;14.86;100.00;96425.88;4986218;28;21001;-58
2022/09/08 04:24:43;;;;;;;3.33;3.13;;;;;;;14.85;100.00;96437.59;5001984;28;20820;-63
2022/09/08 04:27:14;;;;;;;3.00;2.73;;;;;;;14.86;100.00;96442.69;5004554;28;20205;-58
2022/09/08 04:29:42;;;;;;;3.70;2.37;;;;;;;14.89;100.00;96450.22;4960189;28;26425;-59
2022/09/08 04:32:10;;;;;;;3.40;2.67;;;;;;;14.94;100.00;96462.06;5004137;28;20334;-61
2022/09/08 04:34:40;;;;;;;3.40;2.87;;;;;;;14.93;100.00;96473.78;5001953;28;20295;-59
2022/09/08 04:37:08;;;;;;;3.13;2.60;;;;;;;15.04;100.00;96478.31;4986794;28;20209;-62
2022/09/08 04:39:36;;;;;;;4.97;3.20;;;;;;;14.93;100.00;96471.91;5004031;28;20217;-60
2022/09/08 04:42:05;;;;;;;3.70;3.20;;;;;;;14.86;100.00;96465.88;5009758;28;20244;-60
2022/09/08 04:44:34;;;;;;;3.83;3.53;;;;;;;14.93;100.00;96450.56;4958249;28;20204;-59
2022/09/08 04:47:02;;;;;;;3.03;2.90;;;;;;;14.99;100.00;96452.34;4999855;28;20682;-57
2022/09/08 04:49:30;;;;;;;2.97;2.70;;;;;;;15.02;100.00;96459.06;5009147;28;20895;-60
2022/09/08 04:51:59;;;;;;;3.40;3.10;;;;;;;15.01;100.00;96447.59;4995694;28;20228;-60
2022/09/08 04:54:28;;;;;;;2.97;2.60;;;;;;;15.07;100.00;96447.72;4986009;28;20212;-59
2022/09/08 04:56:56;;;;;;;3.43;3.13;;;;;;;15.10;100.00;96441.91;5015399;28;20287;-60
2022/09/08 04:59:25;;;;;;;2.73;2.57;;;;;;;15.03;100.00;96434.84;4972030;28;20926;-60
2022/09/08 05:01:54;;;;;;;2.57;2.37;;;;;;;15.18;100.00;96442.38;5009526;28;21008;-57
2022/09/08 05:04:22;;;;;;;2.93;2.73;;;;;;;15.15;100.00;96442.03;5010006;28;20208;-60
2022/09/08 05:06:50;;;;;;;2.87;2.67;;;;;;;15.13;100.00;96433.44;4989810;28;20293;-59
2022/09/08 05:09:20;;;;;;;3.83;3.20;;;;;;;15.21;100.00;96430.41;4988314;28;20220;-61
2022/09/08 05:11:48;;;;;;;2.87;2.67;;;;;;;15.16;100.00;96435.63;5013107;28;20370;-61
2022/09/08 05:14:16;;;;;;;3.57;2.83;;;;;;;15.15;100.00;96434.84;4978606;28;20223;-61
2022/09/08 05:16:44;;;;;;;2.80;2.60;;;;;;;15.33;100.00;96446.44;4957371;28;20240;-57
2022/09/08 05:19:13;;;;;;;4.30;3.77;;;;;;;15.32;100.00;96442.13;5006625;28;20248;-59
2022/09/08 05:21:41;;;;;;;3.30;3.00;;;;;;;15.48;100.00;96452.09;5005675;28;20217;-58
2022/09/08 05:24:09;;;;;;;5.13;3.00;;;;;;;15.45;100.00;96451.78;4944677;28;20251;-58
2022/09/08 05:26:38;;;;;;;3.23;2.80;;;;;;;15.42;100.00;96455.72;5003080;28;20212;-62
2022/09/08 05:29:07;;;;;;;2.63;2.53;;;;;;;15.40;100.00;96479.16;4987909;28;20672;-60
2022/09/08 05:31:35;;;;;;;3.23;2.77;;;;;;;15.43;100.00;96485.91;4948849;28;20224;-63
2022/09/08 05:34:03;;;;;;;3.20;2.97;;;;;;;15.33;100.00;96483.81;5003082;28;20197;-60
2022/09/08 05:36:32;;;;;;;3.30;3.10;;;;;;;15.34;100.00;96486.25;5007928;28;20209;-58
2022/09/08 05:39:01;;;;;;;4.37;3.70;;;;;;;15.41;100.00;96498.66;4987538;28;20216;-58
2022/09/08 05:41:29;;;;;;;4.33;3.93;;;;;;;15.44;100.00;96507.00;5009512;28;20229;-60
2022/09/08 05:43:59;;;;;;;4.73;4.30;;;;;;;15.39;100.00;96506.09;4985356;28;20918;-60
2022/09/08 05:46:28;;;;;;;3.73;3.40;;;;;;;15.45;100.00;96521.19;4952140;28;20216;-59
2022/09/08 05:48:59;;;;;;;4.70;4.30;;;;;;;15.41;100.00;96520.81;5003579;28;20200;-61
2022/09/08 05:51:27;;;;;;;4.40;4.03;;;;;;;15.47;100.00;96516.41;4962478;28;20661;-61
2022/09/08 05:53:59;;;;;;;15.17;12.63;;;;;;;15.50;100.00;96518.63;4978938;28;20212;-62
2022/09/08 05:56:27;;;;;;;6.73;6.13;;;;;;;15.47;100.00;96519.09;4998384;28;20213;-56
2022/09/08 05:58:57;;;;;;;4.20;3.80;;;;;;;15.42;100.00;96519.78;4991189;28;20240;-61
2022/09/08 06:01:29;;;;;;;5.43;4.10;;;;;;;15.43;100.00;96520.59;4988230;28;21547;-59
2022/09/08 06:03:57;;;;;;;4.20;3.90;;;;;;;15.54;100.00;96527.78;5004605;28;20201;-57
2022/09/08 06:06:27;;;;;;;4.13;3.83;;;;;;;15.53;100.00;96528.84;5010362;28;20212;-60
2022/09/08 06:08:55;;;;;;;4.07;3.87;;;;;;;15.57;100.00;96521.97;4967003;28;20213;-61
2022/09/08 06:11:24;;;;;;;6.27;4.40;;;;;;;15.68;100.00;96530.22;5007561;28;20311;-59
2022/09/08 06:13:52;;;;;;;5.13;4.70;;;;;;;15.70;100.00;96533.47;4991739;28;21090;-58
2022/09/08 06:16:21;;;;;;;4.37;3.80;;;;;;;15.77;100.00;96534.19;4987803;28;20231;-61
2022/09/08 06:18:51;;;;;;;9.00;8.07;;;;;;;15.81;100.00;96531.84;5003855;28;20945;-61
2022/09/08 06:21:20;;;;;;;5.00;4.20;;;;;;;15.75;100.00;96533.59;5005180;28;20211;-58
2022/09/08 06:23:49;;;;;;;5.10;4.70;;;;;;;15.79;100.00;96537.44;4963772;28;20856;-60
2022/09/08 06:26:27;;;;;;;6.80;4.80;;;;;;;15.74;100.00;96534.66;5006082;28;20227;-57
2022/09/08 06:29:00;;;;;;;4.77;4.47;;;;;;;15.83;100.00;96530.56;5005720;28;20214;-61
2022/09/08 06:31:30;;;;;;;4.60;4.20;;;;;;;15.71;100.00;96519.91;4982291;28;21256;-58
2022/09/08 06:34:05;;;;;;;5.00;4.57;;;;;;;15.83;100.00;96521.72;5007582;28;20580;-61
2022/09/08 06:36:37;;;;;;;4.20;3.90;;;;;;;15.91;100.00;96518.75;5010895;28;20210;-57
2022/09/08 06:39:09;;;;;;;5.60;4.00;;;;;;;16.01;100.00;96529.66;4959822;28;20208;-62
2022/09/08 06:41:43;;;;;;;11.73;10.63;;;;;;;16.08;100.00;96534.06;5003392;28;20546;-61
2022/09/08 06:44:16;;;;;;;4.37;4.07;;;;;;;16.15;100.00;96535.56;5005438;28;20527;-57
2022/09/08 06:46:46;;;;;;;4.23;3.93;;;;;;;16.13;100.00;96526.97;4974352;28;20208;-57
2022/09/08 06:49:15;;;;;;;3.70;3.50;;;;;;;16.24;100.00;96524.50;5006325;28;20208;-60
2022/09/08 06:51:48;;;;;;;6.70;3.77;;;;;;;16.30;100.00;96521.69;5006468;28;20228;-59
2022/09/08 06:54:33;;;;;;;4.03;3.67;;;;;;;16.40;100.00;96518.38;4956316;28;21651;-57
2022/09/08 06:57:07;;;;;;;11.40;10.27;;;;;;;16.31;100.00;96531.34;5000731;28;20204;-60
2022/09/08 07:00:06;;;;;;;7.57;6.97;;;;;;;16.35;100.00;96526.31;5002574;28;20307;-60
2022/09/08 07:02:52;;;;;;;3.90;3.70;;;;;;;16.32;100.00;96521.44;4986325;28;20983;-56
2022/09/08 07:05:50;;;;;;;3.83;3.63;;;;;;;16.28;100.00;96531.00;5002304;28;20405;-59
2022/09/08 07:08:27;;;;;;;4.33;4.10;;;;;;;16.37;100.00;96534.91;5003997;28;20201;-61
2022/09/08 07:10:58;;;;;;;4.70;4.40;;;;;;;16.34;100.00;96535.38;4959287;28;20204;-60
2022/09/08 07:13:29;;;;;;;5.10;4.80;;;;;;;16.43;100.00;96535.84;5004759;28;20213;-60
2022/09/08 07:16:02;;;;;;;4.83;4.47;;;;;;;16.69;100.00;96539.00;4987186;28;20218;-59
2022/09/08 07:18:35;;;;;;;9.07;8.17;;;;;;;16.98;100.00;96536.31;4988681;28;20574;-56
2022/09/08 07:21:15;;;;;;;6.97;6.37;;;;;;;17.03;100.00;96537.22;5002012;28;20235;-59
2022/09/08 07:23:44;;;;;;;5.27;4.97;;;;;;;17.21;100.00;96536.19;5006152;28;21054;-58
2022/09/08 07:26:20;;;;;;;4.53;4.33;;;;;;;17.09;100.00;96542.66;4965169;28;20898;-59
2022/09/08 07:28:51;;;;;;;4.90;4.60;;;;;;;17.16;100.00;96546.00;5006136;28;20421;-59
2022/09/08 07:31:21;;;;;;;4.77;4.37;;;;;;;17.02;100.00;96548.16;4987891;28;20227;-55
2022/09/08 07:34:00;;;;;;;5.00;4.50;;;;;;;16.99;100.00;96549.47;4965404;28;20219;-59
2022/09/08 07:36:35;;;;;;;6.10;5.60;;;;;;;16.90;100.00;96557.03;5002731;28;20220;-54
2022/09/08 07:39:05;;;;;;;5.50;4.80;;;;;;;17.03;100.00;96552.47;5000620;28;20773;-57
2022/09/08 07:41:36;;;;;;;6.00;5.60;;;;;;;16.92;100.00;96565.63;4962155;28;20437;-54
2022/09/08 07:44:11;;;;;;;5.20;4.40;;;;;;;17.10;100.00;96561.16;4999739;28;20208;-56
2022/09/08 07:46:48;;;;;;;4.20;4.00;;;;;;;17.06;100.00;96563.50;4989979;28;20218;-58
2022/09/08 07:49:23;;;;;;;4.53;4.23;;;;;;;17.17;100.00;96569.84;4985994;28;20452;-60
2022/09/08 07:51:58;;;;;;;4.67;3.97;;;;;;;17.33;100.00;96576.28;5001843;28;20238;-58
2022/09/08 07:54:43;;;;;;;4.37;4.03;;;;;;;17.37;100.00;96571.22;5000896;28;20596;-57
2022/09/08 07:57:15;;;;;;;4.70;3.73;;;;;;;17.36;100.00;96573.13;4958366;28;20329;-57
2022/09/08 08:00:09;;;;;;;3.70;3.50;;;;;;;17.33;100.00;96580.81;4950139;28;20236;-59
2022/09/08 08:03:07;;;;;;;3.43;3.23;;;;;;;17.55;100.00;96577.41;5007343;28;20319;-56
2022/09/08 08:05:40;;;;;;;3.20;2.90;;;;;;;17.52;100.00;96589.41;5007117;28;20233;-57
2022/09/08 08:08:15;;;;;;;2.87;2.70;;;;;;;17.27;100.00;96590.63;4998486;28;20215;-62
2022/09/08 08:10:48;;;;;;;3.23;3.03;;;;;;;17.25;100.00;96592.75;5003128;28;20199;-60
2022/09/08 08:13:24;;;;;;;2.97;2.70;;;;;;;17.28;100.00;96600.28;4999470;28;20883;-58
2022/09/08 08:15:57;;;;;;;2.80;2.60;;;;;;;17.28;100.00;96594.13;4961199;28;20212;-54
2022/09/08 08:18:35;;;;;;;2.87;2.67;;;;;;;17.24;100.00;96612.53;5007097;28;20326;-55
2022/09/08 08:21:06;;;;;;;2.40;2.30;;;;;;;17.22;100.00;96614.63;5006500;28;20235;-60
2022/09/08 08:24:18;;;;;;;2.70;2.53;;;;;;;17.06;100.00;96617.03;5013742;28;20254;-60
2022/09/08 08:26:54;;;;;;;2.97;2.77;;;;;;;16.98;100.00;96622.78;4945282;28;20206;-59
2022/09/08 08:29:40;;;;;;;2.73;2.33;;;;;;;17.05;100.00;96626.09;4896181;28;22295;-59
2022/09/08 08:32:11;;;;;;;3.23;2.97;;;;;;;16.91;100.00;96630.09;4946727;28;21194;-58
2022/09/08 08:35:03;;;;;;;2.60;2.50;;;;;;;16.93;100.00;96634.16;4949099;28;20211;-58
2022/09/08 08:37:33;;;;;;;2.50;2.40;;;;;;;16.79;100.00;96633.59;4946678;28;20415;-60
2022/09/08 08:40:01;;;;;;;5.27;4.83;;;;;;;16.68;100.00;96645.16;4945239;28;20856;-58
2022/09/08 08:42:42;;;;;;;5.77;5.30;;;;;;;16.70;100.00;96639.59;4943493;28;20226;-57
2022/09/08 08:45:22;;;;;;;2.10;2.00;;;;;;;16.89;100.00;96640.22;4901810;28;20218;-59
2022/09/08 08:48:05;;;;;;;2.57;2.00;;;;;;;16.89;100.00;96649.06;4944172;28;20368;-58
2022/09/08 08:50:52;;;;;;;2.27;2.13;;;;;;;16.89;100.00;96645.59;4948000;28;20237;-60
2022/09/08 08:53:41;;;;;;;2.37;2.07;;;;;;;16.97;100.00;96655.06;4947748;28;20429;-54
2022/09/08 08:56:31;;;;;;;2.33;2.13;;;;;;;17.08;100.00;96646.25;4947813;28;20469;-56
2022/09/08 08:59:19;;;;;;;2.23;2.13;;;;;;;17.25;100.00;96648.97;4946361;28;20228;-58
2022/09/08 09:02:19;;;;;;;2.40;2.30;;;;;;;17.40;100.00;96648.41;4949331;28;20240;-59
2022/09/08 09:05:10;;;;;;;2.67;2.47;;;;;;;17.43;100.00;96647.13;4930041;28;20697;-60
2022/09/08 09:08:30;;;;;;;2.03;1.83;;;;;;;17.26;100.00;96647.09;4910199;28;20210;-53
2022/09/08 09:11:08;;;;;;;2.20;2.00;;;;;;;17.15;100.00;96646.91;4916459;28;20687;-57
2022/09/08 09:14:09;;;;;;;2.00;1.77;;;;;;;17.25;100.00;96648.13;4928534;28;20400;-58
2022/09/08 09:17:05;;;;;;;2.20;2.10;;;;;;;16.99;100.00;96642.31;4880356;28;20451;-61
2022/09/08 09:20:00;;;;;;;2.33;2.23;;;;;;;17.05;100.00;96639.50;4927446;28;20206;-58
2022/09/08 09:22:35;;;;;;;2.63;2.53;;;;;;;16.92;100.00;96645.09;4931890;28;20265;-56
2022/09/08 09:25:13;;;;;;;3.17;2.37;;;;;;;16.96;100.00;96642.75;4930142;28;20210;-60
2022/09/08 09:27:43;;;;;;;2.03;1.93;;;;;;;17.18;100.00;96640.25;4927636;28;20301;-60
2022/09/08 09:30:21;;;;;;;3.30;1.77;;;;;;;17.28;100.00;96640.44;4900342;28;20216;-57
2022/09/08 09:33:28;;;;;;;2.00;2.00;;;;;;;17.21;100.00;96627.22;4885982;28;20246;-57
2022/09/08 09:36:18;;;;;;;1.80;1.77;;;;;;;17.48;100.00;96620.41;4874821;29;20215;-58
2022/09/08 09:38:59;;;;;;;3.07;1.93;;;;;;;17.61;100.00;96624.66;4892085;29;20296;-55
2022/09/08 09:41:40;;;;;;;2.13;2.03;;;;;;;17.75;100.00;96625.16;4940316;28;20234;-59
2022/09/08 09:44:20;;;;;;;1.50;1.50;;;;;;;18.05;100.00;96610.63;4941713;28;20222;-55
2022/09/08 09:47:18;;;;;;;15.90;14.33;;;;;;;18.52;100.00;96618.22;4935123;28;20206;-60
2022/09/08 09:50:17;;;;;;;2.40;2.30;;;;;;;18.68;100.00;96617.59;4932727;28;20309;-61
2022/09/08 09:52:52;;;;;;;1.50;1.50;;;;;;;18.77;100.00;96622.28;4932797;28;20230;-57
2022/09/08 09:55:34;;;;;;;1.40;1.40;;;;;;;18.76;100.00;96620.66;4946425;28;20228;-54
2022/09/08 09:58:38;;;;;;;2.03;1.40;;;;;;;18.62;100.00;96609.50;4940917;28;20350;-60
2022/09/08 10:01:36;;;;;;;4.20;2.13;;;;;;;18.36;100.00;96611.03;4946989;28;20297;-58
2022/09/08 10:04:35;;;;;;;2.00;1.83;;;;;;;18.02;100.00;96593.16;4901568;28;20214;-60
2022/09/08 10:07:26;;;;;;;1.90;1.50;;;;;;;18.18;100.00;96610.28;4892764;28;20581;-58
2022/09/08 10:10:30;;;;;;;1.80;1.70;;;;;;;18.10;100.00;96610.69;4945874;28;20481;-61
2022/09/08 10:13:25;;;;;;;1.80;1.53;;;;;;;17.89;100.00;96625.63;4996722;28;20220;-58
2022/09/08 10:16:12;;;;;;;1.47;1.30;;;;;;;18.25;100.00;96623.50;4982022;28;20305;-59
2022/09/08 10:18:58;;;;;;;1.57;1.47;;;;;;;18.20;100.00;96615.41;5000206;28;20494;-61
2022/09/08 10:21:49;;;;;;;2.10;2.00;;;;;;;18.18;100.00;96615.63;5004595;28;20848;-56
2022/09/08 10:24:57;;;;;;;3.43;2.83;;;;;;;18.29;100.00;96615.75;4960664;28;20703;-59
2022/09/08 10:27:56;;;;;;;2.10;2.00;;;;;;;18.41;100.00;96621.03;5007294;28;20208;-58
2022/09/08 10:31:24;;;;;;;1.90;1.80;;;;;;;18.58;100.00;96621.78;4968094;28;20205;-60
2022/09/08 10:34:20;;;;;;;28.50;9.53;;;;;;;19.00;100.00;96614.25;4960361;28;20323;-58
2022/09/08 10:37:09;;;;;;;2.60;1.50;;;;;;;19.52;100.00;96615.56;4935166;28;20209;-61
2022/09/08 10:39:43;;;;;;;1.33;1.23;;;;;;;19.65;100.00;96619.66;4913833;28;20461;-54
2022/09/08 10:42:47;;;;;;;1.10;1.10;;;;;;;19.81;100.00;96605.28;4959914;28;20225;-57
2022/09/08 10:45:41;;;;;;;1.00;1.00;;;;;;;20.08;100.00;96609.81;4937023;28;20293;-60
2022/09/08 10:48:46;;;;;;;1.23;1.13;;;;;;;20.02;100.00;96620.78;4954317;28;20210;-59
2022/09/08 10:51:41;;;;;;;0.90;0.90;;;;;;;19.66;100.00;96619.41;4945518;28;20327;-60
2022/09/08 10:54:39;;;;;;;1.50;1.40;;;;;;;19.55;100.00;96633.84;4950045;28;20772;-59
2022/09/08 10:57:19;;;;;;;1.90;1.07;;;;;;;19.19;100.00;96636.97;4960798;28;20210;-59
2022/09/08 11:00:04;;;;;;;1.20;1.20;;;;;;;18.98;100.00;96644.00;4960200;28;20205;-52
2022/09/08 11:02:34;;;;;;;1.27;1.17;;;;;;;19.39;100.00;96635.56;4943092;28;20638;-55
2022/09/08 11:05:40;;;;;;;2.07;1.40;;;;;;;19.42;100.00;96631.56;4990393;28;20241;-55
2022/09/08 11:08:40;;;;;;;1.73;1.10;;;;;;;19.16;100.00;96634.00;4987755;28;20216;-61
2022/09/08 11:11:40;;;;;;;1.10;1.10;;;;;;;19.42;100.00;96623.50;4960054;28;20231;-58
2022/09/08 11:14:22;;;;;;;0.80;0.80;;;;;;;19.13;100.00;96621.06;5004935;28;20304;-58
2022/09/08 11:17:11;;;;;;;2.43;1.13;;;;;;;19.02;100.00;96629.03;4985848;28;20966;-59
2022/09/08 11:19:40;;;;;;;0.77;0.77;;;;;;;19.26;100.00;96630.59;5005414;28;20492;-58
2022/09/08 11:22:33;;;;;;;1.43;1.20;;;;;;;19.46;100.00;96629.97;5001594;28;20236;-57
2022/09/08 11:25:18;;;;;;;0.80;0.80;;;;;;;19.97;100.00;96631.50;5003587;28;20231;-58
2022/09/08 11:27:53;;;;;;;1.57;1.13;;;;;;;20.37;100.00;96635.53;4957136;28;20212;-56
2022/09/08 11:30:23;;;;;;;1.27;1.27;;;;;;;20.40;100.00;96629.63;4999717;28;20311;-57
2022/09/08 11:33:01;;;;;;;1.40;1.30;;;;;;;20.87;100.00;96635.22;4985509;28;20251;-57
2022/09/08 11:35:42;;;;;;;1.50;1.00;;;;;;;21.14;100.00;96637.72;5003735;28;20230;-56
2022/09/08 11:38:20;;;;;;;1.20;1.20;;;;;;;21.02;100.00;96647.94;5006723;28;20204;-55
2022/09/08 11:41:01;;;;;;;0.90;0.90;;;;;;;20.99;100.00;96643.88;5003040;28;20242;-60
2022/09/08 11:43:35;;;;;;;1.17;1.17;;;;;;;21.20;100.00;96642.03;4959809;28;20448;-58
2022/09/08 11:46:24;;;;;;;1.70;1.00;;;;;;;21.36;100.00;96645.56;5006385;28;20200;-57
2022/09/08 11:49:31;;;;;;;0.97;0.90;;;;;;;21.24;100.00;96653.09;4982092;28;20735;-58
2022/09/08 11:52:30;;;;;;;2.80;1.47;;;;;;;20.82;100.00;96652.97;5002697;28;20456;-57
2022/09/08 11:55:18;;;;;;;1.40;1.10;;;;;;;20.22;100.00;96647.78;5004555;28;20208;-60
2022/09/08 11:57:55;;;;;;;1.43;1.40;;;;;;;20.05;100.00;96647.94;4953674;28;20255;-62
2022/09/08 12:00:37;;;;;;;3.03;0.90;;;;;;;19.81;100.00;96664.44;5006899;28;20210;-58
2022/09/08 12:03:31;;;;;;;2.33;1.10;;;;;;;19.47;100.00;96650.41;5000351;28;21776;-58
2022/09/08 12:06:18;;;;;;;0.90;0.90;;;;;;;19.32;100.00;96665.31;5002611;28;20205;-58
2022/09/08 12:09:25;;;;;;;0.90;0.87;;;;;;;19.95;100.00;96653.25;5003106;28;20681;-57
2022/09/08 12:12:35;;;;;;;1.80;1.00;;;;;;;20.03;100.00;96646.59;5001581;28;20235;-59